Santa Rosa, CA (95404)

3:25 PM PST on February 09, 2016 (GMT -0800)
Montecito Ridge | | Change Station
CLOSE
Current Station
Personal Weather Station
Location: Santa Rosa, CA
Elevation: 348 ft
Nearby Weather Stations

Elev 348 ft 38.46 °N, 122.69 °W | Updated 4 seconds ago

Partly Cloudy
Partly Cloudy
71.8 °F
Feels Like 77 °F
N
0.0
Wind Variable Wind from WSW
Gusts 0.0 mph

Today
High -- | Low -- °F
--% Chance of Precip.
Yesterday
High -- | Low -- °F
Precip. -- in
Pressure 30.13 in
Visibility 10.0 miles
Clouds Mostly Cloudy 20000 ft
Heat Index 77 °F
Dew Point 55 °F
Humidity 55%
Rainfall 0.00 in
Snow Depth Not available.
7:08 AM 5:41 PM
New Moon, 3% visible
METAR KSTS 092253Z 14004KT 10SM BKN200 22/11 A3014 RMK AO2 SLP201 T02220111
Pressure 30.13 in
Visibility 10.0 miles
Clouds Mostly Cloudy 20000 ft
Heat Index 77 °F
Dew Point 55 °F
Humidity 55%
Rainfall 0.00 in
Snow Depth Not available.
7:08 AM 5:41 PM
New Moon, 3% visible
METAR KSTS 092253Z 14004KT 10SM BKN200 22/11 A3014 RMK AO2 SLP201 T02220111

10-Day Weather Forecast

Almanac

Astronomy

Feb. 09, 2016 Rise Set
Actual Time
Civil Twilight
Nautical Twilight
Astronomical Twilight
Moon
Length of Visible Light
Length of Day
Tomorrow will be .
, % of the Moon is Illuminated

Today's Extremes

State Highs State Lows

Community

WunderPhotos

Upload Photos

1,891,744 photos uploaded!

WunderBlog® & News

Nearby

Air Quality

  Air Quality AQ Index Pollutant
Not available.

Snow Depth

Station Depth Elevation

Earthquake Activity

City Distance Mag. Time & Date
Minimum magnitude displayed is 2.5.

Coastal Water Temperatures

Place Temperature

Stations

Nearby Weather Stations

Station Location Temp. Windchill Dew Point Humidity Wind Precip. Elev Updated Type
                   

Watches & Warnings

There are currently no watches in effect.